Sam Ratulangi Airport
WAMM : now visible

Airfield :











YOU CAN JOIN US ON...

 
LOGIN :

Register | Disclaimer

   EN    FR    IT 

 









Legend :    VFR   Marginal VFR   IFR   Intensive IFR   Very Intensive IFR
Visi :
Ceiling :
>= 8 km
>= 3000ft
5 to 8 km
1000 to 3000 ft
1500m to 5 km
500 to 1000 ft
800 to 1500m
200 to 500 ft
< 800m
< 200 ft
Symbols :   Thunderstorms  Fog  Heavy snow  Heavy precipitations  Wind > 20 kt






- Airport Elevation : 264 ft
- IATA code : MDC


WAMM - Sam Ratulangi

CURRENT METAR :
  • 241830Z VRB02KT 9999 FEW020 25/24 Q1010 NOSIG

EXPIRED METARs :
  • 241800Z VRB02KT 9999 FEW020 24/24 Q1010 NOSIG
  • 241730Z VRB01KT 9999 FEW020 24/23 Q1011 NOSIG
  • 241700Z VRB01KT 9999 FEW020 24/23 Q1011 NOSIG
  • 241630Z VRB01KT 9999 FEW020 24/23 Q1012 NOSIG
  • 241600Z VRB01KT 9999 FEW020 24/24 Q1012 NOSIG

TAF TAF WAMM
Valid from the 24 at 18:00 until the 26 at 00:00 UTC


241700Z 2418/2524 VRB03KT 9999 SCT020
TEMPO 2500/2502 12008KT
WAAF FIR / Asia



MET'MAP, your aeronautical weather chart ! - Copyright ORBIFLY December 2007 - Disclaimer

ORBIFLY MET'MAP TEAM :

Programming & Development : Alexandra Zaïnal
Original concept : Baudouin d'Aumeries
Technical & hardware support : Manuel Goepfert
Assistance : Marc-Olivier Méhu

Contact : metmap@orbifly.com




SOURCES & CREDITS :

   NOAA       Earth
Advisory